sensor_id;sensor_type;location;lat;lon;timestamp;pressure;altitude;pressure_sealevel;temperature
67509;BMP280;54354;44.724;11.284;2022-10-10T00:00:36;102019.81;;;24.15
67509;BMP280;54354;44.724;11.284;2022-10-10T00:03:02;102015.34;;;24.12
67509;BMP280;54354;44.724;11.284;2022-10-10T00:05:27;102020.75;;;24.12
67509;BMP280;54354;44.724;11.284;2022-10-10T00:07:53;102013.38;;;24.13
67509;BMP280;54354;44.724;11.284;2022-10-10T00:10:18;102009.19;;;24.12
67509;BMP280;54354;44.724;11.284;2022-10-10T00:12:44;102016.56;;;24.11
67509;BMP280;54354;44.724;11.284;2022-10-10T00:15:11;102005.47;;;24.09
67509;BMP280;54354;44.724;11.284;2022-10-10T00:17:37;102013.09;;;24.11
67509;BMP280;54354;44.724;11.284;2022-10-10T00:20:04;102004.72;;;24.09
67509;BMP280;54354;44.724;11.284;2022-10-10T00:22:29;102008.66;;;24.08
67509;BMP280;54354;44.724;11.284;2022-10-10T00:24:55;102000.25;;;24.06
67509;BMP280;54354;44.724;11.284;2022-10-10T00:27:20;101996.81;;;24.05
67509;BMP280;54354;44.724;11.284;2022-10-10T00:29:46;101998.78;;;24.05
67509;BMP280;54354;44.724;11.284;2022-10-10T00:32:12;101998.00;;;24.04
67509;BMP280;54354;44.724;11.284;2022-10-10T00:34:37;101990.38;;;24.03
67509;BMP280;54354;44.724;11.284;2022-10-10T00:37:02;101992.03;;;24.00
67509;BMP280;54354;44.724;11.284;2022-10-10T00:39:28;102002.13;;;24.00
67509;BMP280;54354;44.724;11.284;2022-10-10T00:41:53;102002.13;;;24.00
67509;BMP280;54354;44.724;11.284;2022-10-10T00:44:19;102006.09;;;23.99
67509;BMP280;54354;44.724;11.284;2022-10-10T00:49:28;101992.25;;;23.96
67509;BMP280;54354;44.724;11.284;2022-10-10T00:51:57;101985.53;;;23.92
67509;BMP280;54354;44.724;11.284;2022-10-10T00:54:25;101997.31;;;23.89
67509;BMP280;54354;44.724;11.284;2022-10-10T00:56:57;101981.78;;;23.84
67509;BMP280;54354;44.724;11.284;2022-10-10T00:59:25;101993.13;;;23.88
67509;BMP280;54354;44.724;11.284;2022-10-10T01:01:52;101988.16;;;23.86
67509;BMP280;54354;44.724;11.284;2022-10-10T01:04:37;101986.47;;;23.89
67509;BMP280;54354;44.724;11.284;2022-10-10T01:07:06;101983.22;;;23.85
67509;BMP280;54354;44.724;11.284;2022-10-10T01:09:34;101989.38;;;23.85
67509;BMP280;54354;44.724;11.284;2022-10-10T01:12:29;101986.97;;;23.87
67509;BMP280;54354;44.724;11.284;2022-10-10T01:17:29;101976.75;;;23.77
67509;BMP280;54354;44.724;11.284;2022-10-10T01:29:04;101979.72;;;23.79
67509;BMP280;54354;44.724;11.284;2022-10-10T01:31:36;101977.41;;;23.72
67509;BMP280;54354;44.724;11.284;2022-10-10T01:34:10;101983.81;;;23.74
67509;BMP280;54354;44.724;11.284;2022-10-10T01:37:08;101983.38;;;23.76
67509;BMP280;54354;44.724;11.284;2022-10-10T01:39:57;101977.97;;;23.76
67509;BMP280;54354;44.724;11.284;2022-10-10T01:42:30;101974.13;;;23.67
67509;BMP280;54354;44.724;11.284;2022-10-10T01:44:57;101985.53;;;23.72
67509;BMP280;54354;44.724;11.284;2022-10-10T01:47:23;101980.13;;;23.72
67509;BMP280;54354;44.724;11.284;2022-10-10T01:49:51;101974.13;;;23.67
67509;BMP280;54354;44.724;11.284;2022-10-10T02:00:41;101960.81;;;23.64
67509;BMP280;54354;44.724;11.284;2022-10-10T02:03:13;101962.50;;;23.61
67509;BMP280;54354;44.724;11.284;2022-10-10T02:05:53;101969.41;;;23.62
67509;BMP280;54354;44.724;11.284;2022-10-10T02:10:57;101966.91;;;23.59
67509;BMP280;54354;44.724;11.284;2022-10-10T02:13:27;101963.66;;;23.55
67509;BMP280;54354;44.724;11.284;2022-10-10T02:15:56;101960.22;;;23.54
67509;BMP280;54354;44.724;11.284;2022-10-10T02:18:26;101956.47;;;23.52
67509;BMP280;54354;44.724;11.284;2022-10-10T02:20:53;101960.00;;;23.58
67509;BMP280;54354;44.724;11.284;2022-10-10T02:23:20;101958.69;;;23.53
67509;BMP280;54354;44.724;11.284;2022-10-10T02:25:50;101956.94;;;23.50
67509;BMP280;54354;44.724;11.284;2022-10-10T02:28:19;101953.34;;;23.94
67509;BMP280;54354;44.724;11.284;2022-10-10T02:30:47;101945.81;;;23.63
67509;BMP280;54354;44.724;11.284;2022-10-10T02:33:18;101954.50;;;23.52
67509;BMP280;54354;44.724;11.284;2022-10-10T02:35:46;101955.00;;;23.51
67509;BMP280;54354;44.724;11.284;2022-10-10T02:38:14;101957.13;;;23.47
67509;BMP280;54354;44.724;11.284;2022-10-10T02:40:42;101959.28;;;23.43
67509;BMP280;54354;44.724;11.284;2022-10-10T02:43:09;101951.19;;;23.43
67509;BMP280;54354;44.724;11.284;2022-10-10T02:45:36;101960.03;;;23.43
67509;BMP280;54354;44.724;11.284;2022-10-10T02:48:02;101952.38;;;23.42
67509;BMP280;54354;44.724;11.284;2022-10-10T02:50:29;101953.59;;;23.41
67509;BMP280;54354;44.724;11.284;2022-10-10T02:52:55;101960.03;;;23.43
67509;BMP280;54354;44.724;11.284;2022-10-10T02:55:21;101960.78;;;23.44
67509;BMP280;54354;44.724;11.284;2022-10-10T02:57:46;101957.34;;;23.43
67509;BMP280;54354;44.724;11.284;2022-10-10T03:00:12;101957.34;;;23.43
67509;BMP280;54354;44.724;11.284;2022-10-10T03:02:38;101958.53;;;23.42
67509;BMP280;54354;44.724;11.284;2022-10-10T03:05:04;101960.47;;;23.42
67509;BMP280;54354;44.724;11.284;2022-10-10T03:07:29;101960.97;;;23.40
67509;BMP280;54354;44.724;11.284;2022-10-10T03:09:55;101960.22;;;23.40
67509;BMP280;54354;44.724;11.284;2022-10-10T03:12:21;101961.41;;;23.38
67509;BMP280;54354;44.724;11.284;2022-10-10T03:14:47;101954.53;;;23.37
67509;BMP280;54354;44.724;11.284;2022-10-10T03:17:12;101957.41;;;23.34
67509;BMP280;54354;44.724;11.284;2022-10-10T03:19:38;101958.63;;;23.33
67509;BMP280;54354;44.724;11.284;2022-10-10T03:22:04;101957.91;;;23.32
67509;BMP280;54354;44.724;11.284;2022-10-10T03:24:29;101951.75;;;23.32
67509;BMP280;54354;44.724;11.284;2022-10-10T03:26:55;101959.84;;;23.32
67509;BMP280;54354;44.724;11.284;2022-10-10T03:29:20;101966.47;;;23.31
67509;BMP280;54354;44.724;11.284;2022-10-10T03:31:46;101958.09;;;23.29
67509;BMP280;54354;44.724;11.284;2022-10-10T03:34:11;101959.31;;;23.28
67509;BMP280;54354;44.724;11.284;2022-10-10T03:36:37;101959.31;;;23.28
67509;BMP280;54354;44.724;11.284;2022-10-10T03:39:03;101956.03;;;23.24
67509;BMP280;54354;44.724;11.284;2022-10-10T03:41:29;101962.94;;;23.25
67509;BMP280;54354;44.724;11.284;2022-10-10T03:43:54;101958.28;;;23.25
67509;BMP280;54354;44.724;11.284;2022-10-10T03:46:20;101961.44;;;23.24
67509;BMP280;54354;44.724;11.284;2022-10-10T03:48:46;101952.59;;;23.23
67509;BMP280;54354;44.724;11.284;2022-10-10T03:51:11;101950.34;;;23.22
67509;BMP280;54354;44.724;11.284;2022-10-10T03:53:37;101953.78;;;23.22
67509;BMP280;54354;44.724;11.284;2022-10-10T03:56:03;101950.81;;;23.20
67509;BMP280;54354;44.724;11.284;2022-10-10T03:58:28;101943.94;;;23.19
67509;BMP280;54354;44.724;11.284;2022-10-10T04:00:56;101942.91;;;23.17
67509;BMP280;54354;44.724;11.284;2022-10-10T04:03:22;101935.28;;;23.15
67509;BMP280;54354;44.724;11.284;2022-10-10T04:05:48;101938.44;;;23.14
67509;BMP280;54354;44.724;11.284;2022-10-10T04:08:14;101933.03;;;23.14
67509;BMP280;54354;44.724;11.284;2022-10-10T04:10:40;101930.81;;;23.12
67509;BMP280;54354;44.724;11.284;2022-10-10T04:13:06;101935.94;;;23.10
67509;BMP280;54354;44.724;11.284;2022-10-10T04:15:31;101939.34;;;23.11
67509;BMP280;54354;44.724;11.284;2022-10-10T04:17:58;101941.03;;;23.08
67509;BMP280;54354;44.724;11.284;2022-10-10T04:20:23;101940.75;;;23.06
67509;BMP280;54354;44.724;11.284;2022-10-10T04:22:49;101936.25;;;23.03
67509;BMP280;54354;44.724;11.284;2022-10-10T04:25:15;101943.66;;;23.02
67509;BMP280;54354;44.724;11.284;2022-10-10T04:27:41;101941.41;;;23.01
67509;BMP280;54354;44.724;11.284;2022-10-10T04:30:08;101940.41;;;22.98
67509;BMP280;54354;44.724;11.284;2022-10-10T04:32:35;101939.66;;;22.98
67509;BMP280;54354;44.724;11.284;2022-10-10T04:35:01;101948.94;;;22.97
67509;BMP280;54354;44.724;11.284;2022-10-10T04:37:26;101948.19;;;22.96
67509;BMP280;54354;44.724;11.284;2022-10-10T04:39:52;101947.97;;;22.94
67509;BMP280;54354;44.724;11.284;2022-10-10T04:42:18;101951.59;;;22.91
67509;BMP280;54354;44.724;11.284;2022-10-10T04:44:43;101949.34;;;22.90
67509;BMP280;54354;44.724;11.284;2022-10-10T04:47:09;101951.59;;;22.91
67509;BMP280;54354;44.724;11.284;2022-10-10T04:49:34;101960.88;;;22.90
67509;BMP280;54354;44.724;11.284;2022-10-10T04:52:00;101954.00;;;22.89
67509;BMP280;54354;44.724;11.284;2022-10-10T04:54:26;101954.94;;;22.86
67509;BMP280;54354;44.724;11.284;2022-10-10T04:56:51;101957.31;;;22.84
67509;BMP280;54354;44.724;11.284;2022-10-10T04:59:17;101962.00;;;22.84
67509;BMP280;54354;44.724;11.284;2022-10-10T05:01:42;101963.66;;;22.81
67509;BMP280;54354;44.724;11.284;2022-10-10T05:04:08;101960.22;;;22.81
67509;BMP280;54354;44.724;11.284;2022-10-10T05:06:33;101955.56;;;22.81
67509;BMP280;54354;44.724;11.284;2022-10-10T05:08:59;101964.59;;;22.78
67509;BMP280;54354;44.724;11.284;2022-10-10T05:11:25;101956.22;;;22.76
67509;BMP280;54354;44.724;11.284;2022-10-10T05:13:50;101968.97;;;22.75
67509;BMP280;54354;44.724;11.284;2022-10-10T05:16:16;101953.22;;;22.74
67509;BMP280;54354;44.724;11.284;2022-10-10T05:18:42;101961.06;;;22.72
67509;BMP280;54354;44.724;11.284;2022-10-10T05:21:08;101969.34;;;22.68
67509;BMP280;54354;44.724;11.284;2022-10-10T05:23:36;101969.34;;;22.68
67509;BMP280;54354;44.724;11.284;2022-10-10T05:26:03;101969.03;;;22.66
67509;BMP280;54354;44.724;11.284;2022-10-10T05:28:29;101973.69;;;22.66
67509;BMP280;54354;44.724;11.284;2022-10-10T05:30:54;101971.00;;;22.66
67509;BMP280;54354;44.724;11.284;2022-10-10T05:33:20;101971.75;;;22.66
67509;BMP280;54354;44.724;11.284;2022-10-10T05:35:45;101969.78;;;22.67
67509;BMP280;54354;44.724;11.284;2022-10-10T05:38:11;101967.34;;;22.69
67509;BMP280;54354;44.724;11.284;2022-10-10T05:40:40;101973.22;;;22.67
67509;BMP280;54354;44.724;11.284;2022-10-10T05:43:05;101970.63;;;22.73
67509;BMP280;54354;44.724;11.284;2022-10-10T05:45:31;101973.31;;;22.73
67509;BMP280;54354;44.724;11.284;2022-10-10T05:47:56;101972.59;;;22.72
67509;BMP280;54354;44.724;11.284;2022-10-10T05:50:31;101973.50;;;22.69
67509;BMP280;54354;44.724;11.284;2022-10-10T05:52:58;101971.38;;;22.73
67509;BMP280;54354;44.724;11.284;2022-10-10T05:55:23;101978.28;;;22.74
67509;BMP280;54354;44.724;11.284;2022-10-10T05:57:49;101980.25;;;22.74
67509;BMP280;54354;44.724;11.284;2022-10-10T06:00:15;101985.38;;;22.72
67509;BMP280;54354;44.724;11.284;2022-10-10T06:02:40;101998.88;;;22.72
67509;BMP280;54354;44.724;11.284;2022-10-10T06:05:06;101993.16;;;22.70
67509;BMP280;54354;44.724;11.284;2022-10-10T06:07:31;102003.22;;;22.69
67509;BMP280;54354;44.724;11.284;2022-10-10T06:09:57;102011.63;;;22.71
67509;BMP280;54354;44.724;11.284;2022-10-10T06:12:22;102000.81;;;22.71
67509;BMP280;54354;44.724;11.284;2022-10-10T06:14:48;102003.53;;;22.71
67509;BMP280;54354;44.724;11.284;2022-10-10T06:17:13;102007.72;;;22.72
67509;BMP280;54354;44.724;11.284;2022-10-10T06:19:39;102009.47;;;22.75
67509;BMP280;54354;44.724;11.284;2022-10-10T06:22:04;102007.53;;;22.76
67509;BMP280;54354;44.724;11.284;2022-10-10T06:24:30;102011.72;;;22.77
67509;BMP280;54354;44.724;11.284;2022-10-10T06:26:55;102013.53;;;22.80
67509;BMP280;54354;44.724;11.284;2022-10-10T06:29:21;102010.91;;;22.86
67509;BMP280;54354;44.724;11.284;2022-10-10T06:31:46;102012.94;;;22.91
67509;BMP280;54354;44.724;11.284;2022-10-10T06:34:12;102018.44;;;22.96
67509;BMP280;54354;44.724;11.284;2022-10-10T06:36:37;102012.84;;;23.00
67509;BMP280;54354;44.724;11.284;2022-10-10T06:39:03;102018.09;;;23.03
67509;BMP280;54354;44.724;11.284;2022-10-10T06:41:28;102019.91;;;23.06
67509;BMP280;54354;44.724;11.284;2022-10-10T06:43:54;102014.00;;;23.08
67509;BMP280;54354;44.724;11.284;2022-10-10T06:46:20;102023.13;;;23.11
67509;BMP280;54354;44.724;11.284;2022-10-10T06:48:45;102017.84;;;23.16
67509;BMP280;54354;44.724;11.284;2022-10-10T06:51:14;102017.09;;;23.16
67509;BMP280;54354;44.724;11.284;2022-10-10T06:53:40;102026.97;;;23.19
67509;BMP280;54354;44.724;11.284;2022-10-10T06:56:06;102028.44;;;23.20
67509;BMP280;54354;44.724;11.284;2022-10-10T06:58:32;102031.97;;;23.26
67509;BMP280;54354;44.724;11.284;2022-10-10T07:01:00;102025.66;;;23.29
67509;BMP280;54354;44.724;11.284;2022-10-10T07:03:27;102028.47;;;23.34
67509;BMP280;54354;44.724;11.284;2022-10-10T07:05:56;102027.31;;;23.41
67509;BMP280;54354;44.724;11.284;2022-10-10T07:08:22;102029.47;;;23.52
67509;BMP280;54354;44.724;11.284;2022-10-10T07:10:48;102033.28;;;23.60
67509;BMP280;54354;44.724;11.284;2022-10-10T07:13:13;102028.53;;;23.70
67509;BMP280;54354;44.724;11.284;2022-10-10T07:15:39;102035.03;;;23.78
67509;BMP280;54354;44.724;11.284;2022-10-10T07:18:05;102033.91;;;23.84
67509;BMP280;54354;44.724;11.284;2022-10-10T07:20:32;102032.78;;;23.91
67509;BMP280;54354;44.724;11.284;2022-10-10T07:22:58;102031.63;;;23.97
67509;BMP280;54354;44.724;11.284;2022-10-10T07:25:25;102038.59;;;24.04
67509;BMP280;54354;44.724;11.284;2022-10-10T07:27:50;102028.88;;;24.12
67509;BMP280;54354;44.724;11.284;2022-10-10T07:30:16;102039.09;;;24.23
67509;BMP280;54354;44.724;11.284;2022-10-10T07:32:41;102040.97;;;24.32
67509;BMP280;54354;44.724;11.284;2022-10-10T07:35:08;102033.34;;;24.36
67509;BMP280;54354;44.724;11.284;2022-10-10T07:37:33;102047.72;;;24.42
67509;BMP280;54354;44.724;11.284;2022-10-10T07:39:59;102037.69;;;24.48
67509;BMP280;54354;44.724;11.284;2022-10-10T07:42:25;102047.56;;;24.51
67509;BMP280;54354;44.724;11.284;2022-10-10T07:44:50;102047.56;;;24.51
67509;BMP280;54354;44.724;11.284;2022-10-10T07:47:16;102048.78;;;24.50
67509;BMP280;54354;44.724;11.284;2022-10-10T07:49:41;102046.81;;;24.50
67509;BMP280;54354;44.724;11.284;2022-10-10T07:52:07;102049.06;;;24.52
67509;BMP280;54354;44.724;11.284;2022-10-10T07:54:32;102049.59;;;24.56
67509;BMP280;54354;44.724;11.284;2022-10-10T07:56:58;102050.66;;;24.64
67509;BMP280;54354;44.724;11.284;2022-10-10T07:59:24;102048.28;;;24.72
67509;BMP280;54354;44.724;11.284;2022-10-10T08:01:50;102051.34;;;24.79
67509;BMP280;54354;44.724;11.284;2022-10-10T08:04:15;102047.22;;;24.89
67509;BMP280;54354;44.724;11.284;2022-10-10T08:06:41;102044.41;;;25.04
67509;BMP280;54354;44.724;11.284;2022-10-10T08:11:32;102045.66;;;25.35
67509;BMP280;54354;44.724;11.284;2022-10-10T08:13:57;102045.97;;;25.42
67509;BMP280;54354;44.724;11.284;2022-10-10T08:16:23;102040.31;;;25.46
67509;BMP280;54354;44.724;11.284;2022-10-10T08:18:48;102033.66;;;25.47
67509;BMP280;54354;44.724;11.284;2022-10-10T08:21:15;102034.69;;;25.49
67509;BMP280;54354;44.724;11.284;2022-10-10T08:23:40;102036.16;;;25.50
67509;BMP280;54354;44.724;11.284;2022-10-10T08:26:08;102032.44;;;25.48
67509;BMP280;54354;44.724;11.284;2022-10-10T08:28:35;102042.28;;;25.45
67509;BMP280;54354;44.724;11.284;2022-10-10T08:31:08;102038.84;;;25.45
67509;BMP280;54354;44.724;11.284;2022-10-10T08:33:35;102032.97;;;25.52
67509;BMP280;54354;44.724;11.284;2022-10-10T08:36:05;102034.47;;;25.53
67509;BMP280;54354;44.724;11.284;2022-10-10T08:38:31;102037.97;;;25.59
67509;BMP280;54354;44.724;11.284;2022-10-10T08:40:59;102039.91;;;25.59
67509;BMP280;54354;44.724;11.284;2022-10-10T08:46:18;102037.72;;;25.63
67509;BMP280;54354;44.724;11.284;2022-10-10T08:48:46;102038.50;;;25.69
67509;BMP280;54354;44.724;11.284;2022-10-10T08:51:23;102043.66;;;25.67
67509;BMP280;54354;44.724;11.284;2022-10-10T08:53:51;102047.09;;;25.67
67509;BMP280;54354;44.724;11.284;2022-10-10T08:56:25;102051.06;;;25.66
67509;BMP280;54354;44.724;11.284;2022-10-10T08:58:54;102047.38;;;25.69
67509;BMP280;54354;44.724;11.284;2022-10-10T09:01:24;102049.13;;;25.72
67509;BMP280;54354;44.724;11.284;2022-10-10T09:03:53;102054.59;;;25.78
67509;BMP280;54354;44.724;11.284;2022-10-10T09:16:49;102062.84;;;26.00
67509;BMP280;54354;44.724;11.284;2022-10-10T09:19:33;102054.00;;;26.05
67509;BMP280;54354;44.724;11.284;2022-10-10T09:22:08;102063.41;;;26.10
67509;BMP280;54354;44.724;11.284;2022-10-10T09:24:46;102057.50;;;26.17
67509;BMP280;54354;44.724;11.284;2022-10-10T09:27:19;102058.53;;;26.25
67509;BMP280;54354;44.724;11.284;2022-10-10T09:30:02;102052.84;;;26.23
67509;BMP280;54354;44.724;11.284;2022-10-10T09:32:45;102050.38;;;26.31
67509;BMP280;54354;44.724;11.284;2022-10-10T09:35:20;102051.13;;;26.31
67509;BMP280;54354;44.724;11.284;2022-10-10T09:37:49;102054.34;;;26.35
67509;BMP280;54354;44.724;11.284;2022-10-10T09:40:31;102053.66;;;26.40
67509;BMP280;54354;44.724;11.284;2022-10-10T09:43:01;102050.19;;;26.40
67509;BMP280;54354;44.724;11.284;2022-10-10T09:45:37;102049.44;;;26.39
67509;BMP280;54354;44.724;11.284;2022-10-10T09:48:08;102056.09;;;26.44
67509;BMP280;54354;44.724;11.284;2022-10-10T09:50:36;102052.94;;;26.51
67509;BMP280;54354;44.724;11.284;2022-10-10T09:53:02;102059.38;;;26.59
67509;BMP280;54354;44.724;11.284;2022-10-10T09:55:35;102054.19;;;26.61
67509;BMP280;54354;44.724;11.284;2022-10-10T09:58:31;102054.69;;;26.77
67509;BMP280;54354;44.724;11.284;2022-10-10T10:03:39;102050.50;;;26.81
67509;BMP280;54354;44.724;11.284;2022-10-10T10:06:07;102048.75;;;26.84
67509;BMP280;54354;44.724;11.284;2022-10-10T10:08:34;102041.59;;;26.86
67509;BMP280;54354;44.724;11.284;2022-10-10T10:11:01;102035.41;;;26.80
67509;BMP280;54354;44.724;11.284;2022-10-10T10:13:30;102039.38;;;26.73
67509;BMP280;54354;44.724;11.284;2022-10-10T10:18:27;102041.09;;;26.65
67509;BMP280;54354;44.724;11.284;2022-10-10T10:21:18;102043.59;;;26.63
67509;BMP280;54354;44.724;11.284;2022-10-10T10:23:52;102043.06;;;26.59
67509;BMP280;54354;44.724;11.284;2022-10-10T10:29:02;102050.25;;;26.73
67509;BMP280;54354;44.724;11.284;2022-10-10T10:31:49;102050.50;;;26.76
67509;BMP280;54354;44.724;11.284;2022-10-10T10:34:41;102049.53;;;26.84
67509;BMP280;54354;44.724;11.284;2022-10-10T10:37:19;102046.31;;;26.86
67509;BMP280;54354;44.724;11.284;2022-10-10T10:45:47;102043.09;;;26.87
67509;BMP280;54354;44.724;11.284;2022-10-10T10:48:39;102037.88;;;26.84
67509;BMP280;54354;44.724;11.284;2022-10-10T10:53:54;102026.53;;;26.91
67509;BMP280;54354;44.724;11.284;2022-10-10T10:56:53;102022.84;;;26.94
67509;BMP280;54354;44.724;11.284;2022-10-10T11:04:54;102021.09;;;26.80
67509;BMP280;54354;44.724;11.284;2022-10-10T11:10:22;102015.41;;;26.78
67509;BMP280;54354;44.724;11.284;2022-10-10T11:13:23;102012.94;;;26.74
67509;BMP280;54354;44.724;11.284;2022-10-10T11:15:54;102018.38;;;26.74
67509;BMP280;54354;44.724;11.284;2022-10-10T11:18:28;102021.31;;;26.70
67509;BMP280;54354;44.724;11.284;2022-10-10T11:21:01;102018.88;;;26.72
67509;BMP280;54354;44.724;11.284;2022-10-10T11:26:51;102009.97;;;26.83
67509;BMP280;54354;44.724;11.284;2022-10-10T11:29:24;102013.41;;;26.84
67509;BMP280;54354;44.724;11.284;2022-10-10T11:31:53;102008.25;;;26.91
67509;BMP280;54354;44.724;11.284;2022-10-10T11:34:26;102007.00;;;26.87
67509;BMP280;54354;44.724;11.284;2022-10-10T11:37:00;102015.16;;;26.87
67509;BMP280;54354;44.724;11.284;2022-10-10T11:39:42;102002.56;;;26.89
67509;BMP280;54354;44.724;11.284;2022-10-10T11:42:17;101998.38;;;26.88
67509;BMP280;54354;44.724;11.284;2022-10-10T11:44:54;101998.13;;;26.92
67509;BMP280;54354;44.724;11.284;2022-10-10T11:55:30;101998.59;;;27.13
67509;BMP280;54354;44.724;11.284;2022-10-10T12:00:29;101979.06;;;27.20
67509;BMP280;54354;44.724;11.284;2022-10-10T12:02:59;101982.00;;;27.22
67509;BMP280;54354;44.724;11.284;2022-10-10T12:05:27;101977.81;;;27.21
67509;BMP280;54354;44.724;11.284;2022-10-10T12:13:36;101966.94;;;27.26
67509;BMP280;54354;44.724;11.284;2022-10-10T12:16:06;101968.91;;;27.26
67509;BMP280;54354;44.724;11.284;2022-10-10T12:18:45;101971.38;;;27.29
67509;BMP280;54354;44.724;11.284;2022-10-10T12:21:18;101975.06;;;27.32
67509;BMP280;54354;44.724;11.284;2022-10-10T12:23:49;101971.13;;;27.33
67509;BMP280;54354;44.724;11.284;2022-10-10T12:26:23;101973.09;;;27.44
67509;BMP280;54354;44.724;11.284;2022-10-10T12:29:05;101968.84;;;27.43
67509;BMP280;54354;44.724;11.284;2022-10-10T12:31:34;101981.47;;;27.46
67509;BMP280;54354;44.724;11.284;2022-10-10T12:34:16;101971.09;;;27.44
67509;BMP280;54354;44.724;11.284;2022-10-10T12:37:20;101964.88;;;27.49
67509;BMP280;54354;44.724;11.284;2022-10-10T12:48:02;101963.41;;;27.48
67509;BMP280;54354;44.724;11.284;2022-10-10T12:53:01;101968.59;;;27.46
67509;BMP280;54354;44.724;11.284;2022-10-10T12:55:48;101953.75;;;27.47
67509;BMP280;54354;44.724;11.284;2022-10-10T12:58:38;101956.94;;;27.51
67509;BMP280;54354;44.724;11.284;2022-10-10T13:01:07;101955.75;;;27.47
67509;BMP280;54354;44.724;11.284;2022-10-10T13:03:45;101955.47;;;27.50
67509;BMP280;54354;44.724;11.284;2022-10-10T13:06:35;101958.94;;;27.51
67509;BMP280;54354;44.724;11.284;2022-10-10T13:09:07;101961.91;;;27.58
67509;BMP280;54354;44.724;11.284;2022-10-10T13:11:52;101962.09;;;27.66
67509;BMP280;54354;44.724;11.284;2022-10-10T13:14:18;101962.59;;;27.70
67509;BMP280;54354;44.724;11.284;2022-10-10T13:16:44;101957.38;;;27.72
67509;BMP280;54354;44.724;11.284;2022-10-10T13:19:21;101954.66;;;27.72
67509;BMP280;54354;44.724;11.284;2022-10-10T13:21:48;101953.88;;;27.77
67509;BMP280;54354;44.724;11.284;2022-10-10T13:24:16;101947.19;;;27.78
67509;BMP280;54354;44.724;11.284;2022-10-10T13:26:46;101949.41;;;27.80
67509;BMP280;54354;44.724;11.284;2022-10-10T13:29:20;101947.16;;;27.84
67509;BMP280;54354;44.724;11.284;2022-10-10T13:31:47;101944.19;;;27.87
67509;BMP280;54354;44.724;11.284;2022-10-10T13:34:16;101953.59;;;27.86
67509;BMP280;54354;44.724;11.284;2022-10-10T13:36:44;101950.84;;;27.92
67509;BMP280;54354;44.724;11.284;2022-10-10T13:39:18;101944.16;;;27.93
67509;BMP280;54354;44.724;11.284;2022-10-10T13:41:45;101943.88;;;27.96
67509;BMP280;54354;44.724;11.284;2022-10-10T13:44:20;101935.97;;;27.93
67509;BMP280;54354;44.724;11.284;2022-10-10T13:46:46;101940.91;;;27.94
67509;BMP280;54354;44.724;11.284;2022-10-10T13:49:23;101934.03;;;27.88
67509;BMP280;54354;44.724;11.284;2022-10-10T13:52:00;101936.00;;;27.87
67509;BMP280;54354;44.724;11.284;2022-10-10T13:54:40;101937.25;;;27.86
67509;BMP280;54354;44.724;11.284;2022-10-10T13:59:47;101933.81;;;27.80
67509;BMP280;54354;44.724;11.284;2022-10-10T14:02:16;101931.09;;;27.80
67509;BMP280;54354;44.724;11.284;2022-10-10T14:07:20;101932.88;;;27.72
67509;BMP280;54354;44.724;11.284;2022-10-10T14:09:56;101932.16;;;27.72
67509;BMP280;54354;44.724;11.284;2022-10-10T14:14:52;101921.50;;;27.74
67509;BMP280;54354;44.724;11.284;2022-10-10T14:17:18;101926.66;;;27.77
67509;BMP280;54354;44.724;11.284;2022-10-10T14:19:45;101917.53;;;27.75
67509;BMP280;54354;44.724;11.284;2022-10-10T14:22:11;101928.84;;;27.79
67509;BMP280;54354;44.724;11.284;2022-10-10T14:24:36;101919.97;;;27.78
67509;BMP280;54354;44.724;11.284;2022-10-10T14:29:46;101914.81;;;27.75
67509;BMP280;54354;44.724;11.284;2022-10-10T14:32:13;101907.38;;;27.69
67509;BMP280;54354;44.724;11.284;2022-10-10T14:34:39;101912.81;;;27.69
67509;BMP280;54354;44.724;11.284;2022-10-10T14:37:07;101912.09;;;27.69
67509;BMP280;54354;44.724;11.284;2022-10-10T14:39:34;101916.03;;;27.74
67509;BMP280;54354;44.724;11.284;2022-10-10T14:42:00;101909.38;;;27.69
67509;BMP280;54354;44.724;11.284;2022-10-10T14:44:25;101914.56;;;27.67
67509;BMP280;54354;44.724;11.284;2022-10-10T14:46:51;101913.63;;;27.64
67509;BMP280;54354;44.724;11.284;2022-10-10T14:49:19;101904.22;;;27.60
67509;BMP280;54354;44.724;11.284;2022-10-10T14:51:46;101921.06;;;27.58
67509;BMP280;54354;44.724;11.284;2022-10-10T14:54:12;101911.94;;;27.56
67509;BMP280;54354;44.724;11.284;2022-10-10T14:56:38;101912.94;;;27.53
67509;BMP280;54354;44.724;11.284;2022-10-10T14:59:14;101904.06;;;27.47
67509;BMP280;54354;44.724;11.284;2022-10-10T15:01:41;101911.66;;;27.54
67509;BMP280;54354;44.724;11.284;2022-10-10T15:04:06;101909.69;;;27.54
67509;BMP280;54354;44.724;11.284;2022-10-10T15:06:31;101911.94;;;27.56
67509;BMP280;54354;44.724;11.284;2022-10-10T15:08:57;101909.97;;;27.56
67509;BMP280;54354;44.724;11.284;2022-10-10T15:11:22;101907.94;;;27.57
67509;BMP280;54354;44.724;11.284;2022-10-10T15:13:48;101911.41;;;27.57
67509;BMP280;54354;44.724;11.284;2022-10-10T15:16:13;101905.97;;;27.57
67509;BMP280;54354;44.724;11.284;2022-10-10T15:18:38;101906.69;;;27.58
67509;BMP280;54354;44.724;11.284;2022-10-10T15:21:11;101902.25;;;27.55
67509;BMP280;54354;44.724;11.284;2022-10-10T15:23:37;101908.22;;;27.59
67509;BMP280;54354;44.724;11.284;2022-10-10T15:26:03;101904.75;;;27.58
67509;BMP280;54354;44.724;11.284;2022-10-10T15:28:29;101909.66;;;27.60
67509;BMP280;54354;44.724;11.284;2022-10-10T15:30:55;101913.13;;;27.60
67509;BMP280;54354;44.724;11.284;2022-10-10T15:33:20;101919.31;;;27.61
67509;BMP280;54354;44.724;11.284;2022-10-10T15:35:55;101925.00;;;27.57
67509;BMP280;54354;44.724;11.284;2022-10-10T15:38:20;101922.56;;;27.59
67509;BMP280;54354;44.724;11.284;2022-10-10T15:40:55;101926.00;;;27.54